»·PEaware :: N5673S L88-KSBP

N5673S :: L88-KSBP

FLIGHT INFORMATION

Flight Status: Arrived
Operator: Privately registered:
United States
More flights under this callsign
Pilot: Zenji N. (16866)
Aircraft: PIPER PA-28 CHEROKEE ARCHER
(P28A)
More flights by this aircraft type
Origin: L88 New Cuyama
United States
Destination: KSBP San Luis Co Regl
United States
More flights between these airports :: More routes between these airports
Route: DCT KSBP
File this flight plan on PilotEdge
Remarks: CAT 2 Rating
Altitude:
(Current/Filed)
6,500ft
Speed:
(Current/Filed)
120kts
Departed: 12-Oct-17 07:31 PM
Arrived: 12-Oct-17 07:58 PM
Distance/Time
Traveled:
50nm/0:27
Distance/Time
To Go:
Arrived

Flight Plot

Page will automatically refresh every two minutes.

Flight plan parsing failed; only flown route is shown


Map Options




Map Legend


Flown Route
Filed Route
Departure Airport
Arrival Airport
Navaid (VOR, NDB)
Fix

Horizontal Profiles

Position Reports

Time Latitude Longitude Heading Altitude Ground
Speed
12-Oct-17 19:22 34.943230 -119.691358 26 2206ft 0kts
12-Oct-17 19:24 34.943230 -119.691358 26 2206ft 0kts
12-Oct-17 19:25 34.943230 -119.691358 26 2206ft 0kts
12-Oct-17 19:26 34.943230 -119.691358 26 2206ft 0kts
12-Oct-17 19:27 34.943232 -119.691357 26 2206ft 0kts
12-Oct-17 19:28 34.943235 -119.691355 26 2206ft 0kts
12-Oct-17 19:29 34.943239 -119.691353 26 2206ft 0kts
12-Oct-17 19:30 34.943242 -119.691351 26 2206ft 0kts
12-Oct-17 19:31 34.943039 -119.691097 196 2206ft 1kts
12-Oct-17 19:32 34.941562 -119.689521 116 2206ft 14kts
12-Oct-17 19:33 34.939477 -119.684449 116 2206ft 18kts
12-Oct-17 19:34 34.937596 -119.679788 359 2206ft 1kts
12-Oct-17 19:35 34.937722 -119.680139 296 2206ft 12kts
12-Oct-17 19:36 34.948371 -119.702126 302 2907ft 88kts
12-Oct-17 19:37 34.960748 -119.727209 289 4051ft 87kts
12-Oct-17 19:38 34.969344 -119.755943 285 5294ft 91kts
12-Oct-17 19:39 34.978795 -119.784358 296 6308ft 94kts
12-Oct-17 19:40 34.990935 -119.819463 292 6521ft 118kts
12-Oct-17 19:41 35.003377 -119.857806 294 6537ft 128kts
12-Oct-17 19:42 35.016685 -119.897955 295 6498ft 122kts
12-Oct-17 19:43 35.029339 -119.936079 295 6495ft 123kts
12-Oct-17 19:44 35.042469 -119.975098 295 6500ft 124kts
12-Oct-17 19:45 35.053735 -120.014373 291 6492ft 118kts
12-Oct-17 19:46 35.063552 -120.053211 291 6512ft 127kts
12-Oct-17 19:47 35.074438 -120.094913 292 6533ft 131kts
12-Oct-17 19:48 35.085584 -120.137030 291 6526ft 128kts
12-Oct-17 19:49 35.102245 -120.171859 312 6496ft 117kts
12-Oct-17 19:50 35.110861 -120.210359 286 6498ft 117kts
12-Oct-17 19:51 35.118572 -120.249148 296 6497ft 115kts
12-Oct-17 19:52 35.129754 -120.286161 294 6498ft 116kts
12-Oct-17 19:53 35.137289 -120.324314 268 6228ft 123kts
12-Oct-17 19:54 35.139111 -120.366129 284 5575ft 124kts
12-Oct-17 19:55 35.148019 -120.405477 295 4701ft 116kts
12-Oct-17 19:56 35.159561 -120.441465 297 3779ft 111kts
12-Oct-17 19:57 35.173028 -120.475586 301 2858ft 107kts
12-Oct-17 19:58 35.186086 -120.508672 298 2667ft 105kts
12-Oct-17 19:59 35.198028 -120.541803 297 2518ft 109kts
12-Oct-17 20:00 35.208906 -120.575868 275 1782ft 106kts
12-Oct-17 20:01 35.217387 -120.605930 306 951ft 85kts
12-Oct-17 20:02 35.228331 -120.625152 307 445ft 51kts
12-Oct-17 20:03 35.235086 -120.636730 358 215ft 12kts
12-Oct-17 20:04 35.235325 -120.636368 69 215ft 0kts
12-Oct-17 20:05 35.235325 -120.636365 69 215ft 0kts
12-Oct-17 20:06 35.235662 -120.636189 304 215ft 3kts
12-Oct-17 20:07 35.237006 -120.637778 31 215ft 4kts
12-Oct-17 20:08 35.238118 -120.638162 303 215ft 5kts
12-Oct-17 20:09 35.238781 -120.639291 304 215ft 0kts
12-Oct-17 20:10 35.238783 -120.639293 304 215ft 0kts
12-Oct-17 20:11 35.238783 -120.639293 304 215ft 0kts
12-Oct-17 20:12 35.238783 -120.639293 304 215ft 0kts
12-Oct-17 20:13 35.238783 -120.639293 304 215ft 0kts
12-Oct-17 20:14 35.238783 -120.639293 304 215ft 0kts

Navigation Log

Ident Type
Flight plan parsing failed, navigation log unavailable